createdAt,value
2022-11-03T00:00:50.737Z,6.70
2022-11-03T00:03:40.704Z,6.20
2022-11-03T00:06:31.003Z,6.60
2022-11-03T00:09:21.704Z,6.50
2022-11-03T00:12:12.142Z,5.80
2022-11-03T00:15:02.116Z,6.50
2022-11-03T00:17:52.423Z,5.80
2022-11-03T00:20:42.776Z,5.60
2022-11-03T00:23:34.212Z,6.20
2022-11-03T00:26:25.699Z,5.70
2022-11-03T00:29:15.879Z,5.80
2022-11-03T00:32:06.822Z,5.50
2022-11-03T00:34:56.791Z,5.80
2022-11-03T00:37:46.725Z,5.60
2022-11-03T00:40:36.862Z,6.00
2022-11-03T00:43:27.657Z,6.10
2022-11-03T00:46:17.708Z,5.50
2022-11-03T00:49:07.748Z,6.00
2022-11-03T00:51:57.845Z,6.50
2022-11-03T00:54:51.343Z,5.80
2022-11-03T00:57:45.244Z,5.90
2022-11-03T01:00:35.194Z,5.90
2022-11-03T01:03:25.443Z,5.80
2022-11-03T01:06:33.524Z,5.80
2022-11-03T01:09:25.015Z,6.30
2022-11-03T01:12:16.625Z,6.00
2022-11-03T01:15:09.403Z,6.10
2022-11-03T01:17:59.365Z,5.40
2022-11-03T01:20:55.807Z,5.70
2022-11-03T01:23:46.020Z,6.00
2022-11-03T01:26:36.035Z,5.70
2022-11-03T01:29:26.091Z,5.70
2022-11-03T01:32:16.060Z,5.60
2022-11-03T01:35:08.190Z,5.80
2022-11-03T01:37:59.699Z,5.30
2022-11-03T01:40:49.923Z,5.50
2022-11-03T01:43:40.439Z,5.50
2022-11-03T01:46:30.571Z,5.30
2022-11-03T01:49:22.931Z,5.60
2022-11-03T01:52:16.479Z,5.10
2022-11-03T01:55:11.059Z,4.90
2022-11-03T01:58:02.583Z,5.70
2022-11-03T02:00:54.006Z,5.10
2022-11-03T02:03:47.082Z,5.60
2022-11-03T02:06:37.022Z,5.10
2022-11-03T02:09:27.218Z,5.50
2022-11-03T02:12:17.206Z,5.20
2022-11-03T02:15:10.381Z,5.20
2022-11-03T02:18:00.538Z,5.30
2022-11-03T02:20:54.697Z,5.10
2022-11-03T02:23:51.159Z,5.40
2022-11-03T02:26:41.552Z,5.00
2022-11-03T02:29:31.534Z,5.00
2022-11-03T02:32:22.587Z,5.20
2022-11-03T02:35:16.046Z,5.10
2022-11-03T02:38:06.061Z,5.70
2022-11-03T02:40:56.954Z,5.50
2022-11-03T02:43:47.434Z,5.50
2022-11-03T02:46:37.420Z,5.40
2022-11-03T02:49:28.881Z,5.50
2022-11-03T02:52:38.757Z,5.60
2022-11-03T02:55:35.512Z,5.20
2022-11-03T02:58:28.884Z,5.60
2022-11-03T03:01:24.496Z,5.90
2022-11-03T03:04:17.204Z,6.30
2022-11-03T03:07:09.828Z,6.00
2022-11-03T03:10:02.232Z,6.00
2022-11-03T03:12:54.820Z,6.20
2022-11-03T03:15:48.755Z,6.30
2022-11-03T03:18:48.406Z,6.50
2022-11-03T03:21:41.800Z,6.50
2022-11-03T03:24:38.323Z,7.30
2022-11-03T03:27:29.643Z,6.40
2022-11-03T03:30:19.773Z,6.50
2022-11-03T03:33:10.126Z,6.80
2022-11-03T03:36:03.788Z,7.10
2022-11-03T03:38:56.534Z,7.10
2022-11-03T03:41:46.496Z,6.50
2022-11-03T03:44:36.488Z,6.40
2022-11-03T03:47:29.751Z,6.50
2022-11-03T03:50:19.763Z,6.60
2022-11-03T03:53:12.859Z,6.90
2022-11-03T03:56:05.171Z,6.10
2022-11-03T03:58:55.137Z,6.40
2022-11-03T04:01:45.269Z,6.20
2022-11-03T04:04:35.416Z,6.60
2022-11-03T04:07:46.120Z,6.70
2022-11-03T04:10:36.426Z,7.10
2022-11-03T04:13:44.472Z,6.80
2022-11-03T04:16:52.426Z,6.50
2022-11-03T04:20:00.579Z,6.80
2022-11-03T04:22:50.500Z,7.10
2022-11-03T04:25:41.279Z,6.70
2022-11-03T04:28:31.256Z,6.10
2022-11-03T04:31:22.179Z,6.90
2022-11-03T04:34:12.819Z,7.20
2022-11-03T04:37:04.313Z,6.80
2022-11-03T04:39:55.472Z,6.10
2022-11-03T04:42:45.533Z,6.80
2022-11-03T04:45:37.539Z,6.90
2022-11-03T04:48:28.763Z,7.00
2022-11-03T04:51:20.141Z,6.90
2022-11-03T04:54:14.955Z,6.90
2022-11-03T04:57:11.894Z,6.00
2022-11-03T05:00:01.911Z,6.30
2022-11-03T05:02:55.937Z,7.00
2022-11-03T05:05:46.652Z,6.90
2022-11-03T05:08:36.637Z,6.10
2022-11-03T05:11:32.199Z,5.60
2022-11-03T05:14:24.117Z,6.70
2022-11-03T05:17:23.369Z,6.40
2022-11-03T05:20:35.533Z,6.20
2022-11-03T05:23:26.424Z,6.40
2022-11-03T05:26:19.268Z,6.30
2022-11-03T05:29:14.364Z,6.50
2022-11-03T05:32:08.599Z,6.90
2022-11-03T05:34:58.544Z,6.70
2022-11-03T05:37:48.516Z,6.60
2022-11-03T05:40:38.537Z,6.60
2022-11-03T05:43:29.502Z,6.50
2022-11-03T05:46:24.830Z,6.30
2022-11-03T05:49:17.929Z,6.10
2022-11-03T05:52:13.520Z,6.40
2022-11-03T05:55:04.143Z,6.50
2022-11-03T05:57:55.676Z,6.90
2022-11-03T06:00:48.785Z,6.80
2022-11-03T06:03:39.626Z,6.40
2022-11-03T06:06:36.495Z,5.80
2022-11-03T06:09:27.645Z,5.80
2022-11-03T06:12:19.439Z,6.40
2022-11-03T06:15:13.517Z,6.10
2022-11-03T06:18:12.804Z,5.90
2022-11-03T06:21:07.743Z,6.10
2022-11-03T06:23:57.940Z,5.90
2022-11-03T06:26:48.317Z,5.90
2022-11-03T06:29:38.408Z,6.60
2022-11-03T06:32:28.552Z,6.80
2022-11-03T06:35:19.024Z,7.80
2022-11-03T06:38:15.833Z,7.70
2022-11-03T06:41:07.847Z,7.40
2022-11-03T06:43:58.315Z,6.30
2022-11-03T06:46:48.411Z,6.60
2022-11-03T06:49:38.453Z,6.60
2022-11-03T06:52:31.473Z,6.40
2022-11-03T06:55:25.418Z,6.50
2022-11-03T06:58:21.051Z,6.20
2022-11-03T07:01:15.854Z,6.00
2022-11-03T07:04:14.585Z,6.10
2022-11-03T07:07:04.871Z,6.20
2022-11-03T07:09:55.622Z,5.90
2022-11-03T07:12:48.900Z,5.70
2022-11-03T07:15:39.248Z,6.10
2022-11-03T07:18:34.416Z,6.20
2022-11-03T07:21:34.523Z,7.40
2022-11-03T07:24:27.043Z,6.80
2022-11-03T07:27:25.152Z,6.70
2022-11-03T07:30:21.447Z,7.00
2022-11-03T07:33:19.146Z,7.40
2022-11-03T07:36:15.640Z,6.90
2022-11-03T07:39:09.631Z,7.10
2022-11-03T07:41:59.615Z,7.50
2022-11-03T07:44:51.794Z,7.60
2022-11-03T07:47:41.988Z,7.20
2022-11-03T07:50:31.967Z,7.60
2022-11-03T07:53:26.912Z,6.90
2022-11-03T07:56:21.136Z,7.30
2022-11-03T07:59:16.356Z,7.30
2022-11-03T08:02:20.415Z,8.80
2022-11-03T08:05:10.673Z,7.30
2022-11-03T08:08:00.959Z,7.40
2022-11-03T08:10:51.001Z,7.10
2022-11-03T08:13:40.938Z,7.80
2022-11-03T08:16:31.383Z,7.10
2022-11-03T08:19:21.311Z,6.70
2022-11-03T08:22:11.335Z,7.90
2022-11-03T08:25:01.334Z,6.80
2022-11-03T08:27:51.660Z,7.10
2022-11-03T08:30:41.926Z,7.10
2022-11-03T08:33:32.624Z,7.10
2022-11-03T08:36:22.546Z,7.30
2022-11-03T08:39:12.746Z,6.90
2022-11-03T08:42:03.675Z,7.50
2022-11-03T08:44:53.664Z,7.00
2022-11-03T08:47:43.683Z,7.00
2022-11-03T08:50:33.685Z,7.10
2022-11-03T08:53:25.189Z,6.80
2022-11-03T08:56:17.990Z,7.30
2022-11-03T08:59:11.415Z,7.10
2022-11-03T09:02:05.489Z,6.90
2022-11-03T09:04:55.465Z,7.10
2022-11-03T09:10:55.819Z,6.10
2022-11-03T09:13:45.814Z,6.70
2022-11-03T09:16:35.902Z,6.60
2022-11-03T09:19:25.872Z,6.60
2022-11-03T09:22:15.846Z,6.50
2022-11-03T09:25:09.305Z,6.50
2022-11-03T09:27:59.647Z,6.40
2022-11-03T09:30:49.627Z,6.20
2022-11-03T09:33:41.006Z,5.80
2022-11-03T09:36:31.058Z,6.30
2022-11-03T09:39:21.240Z,6.20
2022-11-03T09:42:12.927Z,6.10
2022-11-03T09:45:04.531Z,6.00
2022-11-03T09:48:10.944Z,6.10
2022-11-03T09:51:05.321Z,5.90
2022-11-03T09:54:03.386Z,5.50
2022-11-03T09:56:53.686Z,4.50
2022-11-03T09:59:54.988Z,4.40
2022-11-03T10:02:57.219Z,3.80
2022-11-03T10:05:50.634Z,3.40
2022-11-03T10:08:41.809Z,3.40
2022-11-03T10:11:33.793Z,3.60
2022-11-03T10:14:24.249Z,3.30
2022-11-03T10:17:18.274Z,3.40
2022-11-03T10:20:12.512Z,3.10
2022-11-03T10:23:05.590Z,3.10
2022-11-03T10:26:00.286Z,2.90
2022-11-03T10:29:01.198Z,2.90
2022-11-03T10:31:52.856Z,2.70
2022-11-03T10:34:43.150Z,2.70
2022-11-03T10:37:35.189Z,2.80
2022-11-03T10:40:48.785Z,3.00
2022-11-03T10:43:39.428Z,2.90
2022-11-03T10:46:49.211Z,3.00
2022-11-03T10:49:43.722Z,2.90
2022-11-03T10:52:38.304Z,2.80
2022-11-03T10:55:30.057Z,3.00
2022-11-03T10:58:22.558Z,3.00
2022-11-03T11:01:13.044Z,2.90
2022-11-03T11:04:03.827Z,2.80
2022-11-03T11:06:53.966Z,3.20
2022-11-03T11:09:44.134Z,2.60
2022-11-03T11:12:34.446Z,3.40
2022-11-03T11:15:44.752Z,3.50
2022-11-03T11:19:11.392Z,3.30
2022-11-03T11:22:03.347Z,3.80
2022-11-03T11:25:02.669Z,3.70
2022-11-03T11:28:14.281Z,3.50
2022-11-03T11:32:19.361Z,3.40
2022-11-03T11:35:12.527Z,3.80
2022-11-03T11:38:55.113Z,3.80
2022-11-03T11:42:11.749Z,3.80
2022-11-03T11:45:05.106Z,3.70
2022-11-03T11:47:55.475Z,3.50
2022-11-03T11:50:48.826Z,3.40
2022-11-03T11:53:41.034Z,3.50
2022-11-03T11:56:33.585Z,3.30
2022-11-03T11:59:26.406Z,3.40
2022-11-03T12:02:22.945Z,3.80
2022-11-03T12:05:22.064Z,4.20
2022-11-03T12:08:28.056Z,4.10
2022-11-03T12:11:45.708Z,4.40
2022-11-03T12:14:38.094Z,3.70
2022-11-03T12:17:34.462Z,4.00
2022-11-03T12:20:46.727Z,3.40
2022-11-03T12:23:42.987Z,3.20
2022-11-03T12:26:47.488Z,3.30
2022-11-03T12:29:38.312Z,3.20
2022-11-03T12:32:33.392Z,3.00
2022-11-03T12:35:30.110Z,3.70
2022-11-03T12:38:23.205Z,3.10
2022-11-03T12:41:24.735Z,3.00
2022-11-03T12:44:18.230Z,3.00
2022-11-03T12:47:13.922Z,2.70
2022-11-03T12:50:09.941Z,2.40
2022-11-03T12:53:00.583Z,2.70
2022-11-03T12:55:56.014Z,2.80
2022-11-03T12:58:49.672Z,3.00
2022-11-03T13:01:47.238Z,3.10
2022-11-03T13:04:40.494Z,4.20
2022-11-03T13:07:34.725Z,4.20
2022-11-03T13:10:28.425Z,3.20
2022-11-03T13:13:19.233Z,3.30
2022-11-03T13:16:10.112Z,3.60
2022-11-03T13:19:00.513Z,3.20
2022-11-03T13:21:50.987Z,2.80
2022-11-03T13:24:41.716Z,2.70
2022-11-03T13:27:33.034Z,2.30
2022-11-03T13:30:23.857Z,2.40
2022-11-03T13:33:14.576Z,2.80
2022-11-03T13:36:06.218Z,2.60
2022-11-03T13:38:56.937Z,2.80
2022-11-03T13:41:47.315Z,2.80
2022-11-03T13:44:37.670Z,2.80
2022-11-03T13:47:49.597Z,2.90
2022-11-03T13:50:38.775Z,2.50
2022-11-03T13:59:51.431Z,2.30
2022-11-03T14:05:52.488Z,2.60
2022-11-03T14:08:42.899Z,2.90
2022-11-03T14:11:51.779Z,4.20
2022-11-03T14:14:47.551Z,4.20
2022-11-03T14:17:39.214Z,3.60
2022-11-03T14:20:29.885Z,3.70
2022-11-03T14:23:20.683Z,4.10
2022-11-03T14:26:23.662Z,4.20
2022-11-03T14:29:22.036Z,4.60
2022-11-03T14:32:12.824Z,5.20
2022-11-03T14:35:03.790Z,5.10
2022-11-03T14:37:54.336Z,5.30
2022-11-03T14:41:03.296Z,5.60
2022-11-03T14:43:53.666Z,5.10
2022-11-03T14:46:44.017Z,4.90
2022-11-03T14:49:36.804Z,5.00
2022-11-03T14:52:27.237Z,4.90
2022-11-03T14:55:18.240Z,4.30
2022-11-03T14:58:10.433Z,4.40
2022-11-03T15:01:01.058Z,4.60
2022-11-03T15:03:52.394Z,5.10
2022-11-03T15:06:44.201Z,6.10
2022-11-03T15:09:34.903Z,6.90
2022-11-03T15:12:26.123Z,6.50
2022-11-03T15:15:16.832Z,6.20
2022-11-03T15:18:12.388Z,6.00
2022-11-03T15:21:06.451Z,5.60
2022-11-03T15:27:07.505Z,5.90
2022-11-03T15:29:58.167Z,5.70
2022-11-03T15:32:51.027Z,5.60
2022-11-03T15:35:41.959Z,5.20
2022-11-03T15:38:32.503Z,6.10
2022-11-03T15:41:22.892Z,6.40
2022-11-03T15:44:13.299Z,6.10
2022-11-03T15:47:03.909Z,6.50
2022-11-03T15:49:55.710Z,6.70
2022-11-03T15:52:49.064Z,6.80
2022-11-03T15:55:39.413Z,7.50
2022-11-03T15:58:32.532Z,7.20
2022-11-03T16:01:23.242Z,7.10
2022-11-03T16:04:15.613Z,6.80
2022-11-03T16:07:08.166Z,7.30
2022-11-03T16:09:59.445Z,7.40
2022-11-03T16:12:49.887Z,8.10
2022-11-03T16:15:46.178Z,7.90
2022-11-03T16:18:37.622Z,8.20
2022-11-03T16:21:28.860Z,8.70
2022-11-03T16:24:19.213Z,8.30
2022-11-03T16:27:09.658Z,8.90
2022-11-03T16:30:00.327Z,9.20
2022-11-03T16:32:52.529Z,9.70
2022-11-03T16:35:42.984Z,9.30
2022-11-03T16:38:33.643Z,9.70
2022-11-03T16:41:24.159Z,9.70
2022-11-03T16:44:14.549Z,10.30
2022-11-03T16:47:05.217Z,9.50
2022-11-03T16:49:55.774Z,10.10
2022-11-03T16:52:47.247Z,9.60
2022-11-03T16:55:37.992Z,9.30
2022-11-03T16:58:30.779Z,9.80
2022-11-03T17:01:21.232Z,9.80
2022-11-03T17:04:11.663Z,10.00
2022-11-03T17:07:02.127Z,9.60
2022-11-03T17:09:54.380Z,9.60
2022-11-03T17:12:44.854Z,9.50
2022-11-03T17:15:35.385Z,9.50
2022-11-03T17:18:25.771Z,9.10
2022-11-03T17:21:16.095Z,9.50
2022-11-03T17:24:07.916Z,9.50
2022-11-03T17:27:00.178Z,10.30
2022-11-03T17:29:52.221Z,10.20
2022-11-03T17:32:42.811Z,10.50
2022-11-03T17:35:39.348Z,10.10
2022-11-03T17:38:30.222Z,10.60
2022-11-03T17:41:20.775Z,10.10
2022-11-03T17:44:12.830Z,9.70
2022-11-03T17:47:03.704Z,10.00
2022-11-03T17:49:54.179Z,10.50
2022-11-03T17:52:46.006Z,9.90
2022-11-03T17:55:36.907Z,9.90
2022-11-03T17:58:29.655Z,10.30
2022-11-03T18:01:22.717Z,10.10
2022-11-03T18:07:17.409Z,10.00
2022-11-03T18:10:08.963Z,9.60
2022-11-03T18:13:16.563Z,10.00
2022-11-03T18:16:10.270Z,9.40
2022-11-03T18:19:00.566Z,9.50
2022-11-03T18:21:51.073Z,9.30
2022-11-03T18:24:42.873Z,9.90
2022-11-03T18:27:33.695Z,9.50
2022-11-03T18:30:24.275Z,8.90
2022-11-03T18:33:24.958Z,9.00
2022-11-03T18:36:15.336Z,9.60
2022-11-03T18:39:06.463Z,9.80
2022-11-03T18:41:56.850Z,8.70
2022-11-03T18:44:48.225Z,9.40
2022-11-03T18:47:38.606Z,9.00
2022-11-03T18:50:29.112Z,9.30
2022-11-03T18:53:21.179Z,9.30
2022-11-03T18:56:12.227Z,9.10
2022-11-03T18:59:02.729Z,9.10
2022-11-03T19:01:53.303Z,9.30
2022-11-03T19:04:44.228Z,9.00
2022-11-03T19:07:35.420Z,8.80
2022-11-03T19:10:26.072Z,9.70
2022-11-03T19:13:18.782Z,8.80
2022-11-03T19:16:13.978Z,8.90
2022-11-03T19:19:04.718Z,9.20
2022-11-03T19:21:55.370Z,8.50
2022-11-03T19:24:45.992Z,9.20
2022-11-03T19:27:40.670Z,9.30
2022-11-03T19:30:32.604Z,9.00
2022-11-03T19:33:24.335Z,9.00
2022-11-03T19:36:17.523Z,8.80
2022-11-03T19:39:08.185Z,8.90
2022-11-03T19:42:18.210Z,9.10
2022-11-03T19:45:13.082Z,9.80
2022-11-03T19:51:15.815Z,10.40
2022-11-03T19:54:09.030Z,9.90
2022-11-03T19:56:59.517Z,9.80
2022-11-03T19:59:50.221Z,9.50
2022-11-03T20:02:40.656Z,9.40
2022-11-03T20:05:31.387Z,10.30
2022-11-03T20:08:24.363Z,10.20
2022-11-03T20:11:15.014Z,9.60
2022-11-03T20:14:05.481Z,10.50
2022-11-03T20:16:56.797Z,10.40
2022-11-03T20:19:47.755Z,11.00
2022-11-03T20:22:39.894Z,11.00
2022-11-03T20:25:32.668Z,11.10
2022-11-03T20:28:25.197Z,10.90
2022-11-03T20:31:16.196Z,11.30
2022-11-03T20:34:06.649Z,11.50
2022-11-03T20:36:58.990Z,11.40
2022-11-03T20:39:54.725Z,11.90
2022-11-03T20:42:46.097Z,11.80
2022-11-03T20:45:37.675Z,11.70
2022-11-03T20:48:30.605Z,12.10
2022-11-03T20:51:22.741Z,12.00
2022-11-03T20:54:16.972Z,12.10
2022-11-03T20:57:08.701Z,12.30
2022-11-03T20:59:59.261Z,12.10
2022-11-03T21:02:50.475Z,13.20
2022-11-03T21:05:40.946Z,11.90
2022-11-03T21:08:31.361Z,12.40
2022-11-03T21:11:23.864Z,12.20
2022-11-03T21:14:22.473Z,12.20
2022-11-03T21:17:32.088Z,12.00
2022-11-03T21:20:22.466Z,12.00
2022-11-03T21:23:18.607Z,12.60
2022-11-03T21:26:12.024Z,11.90
2022-11-03T21:29:02.342Z,11.70
2022-11-03T21:31:52.784Z,11.70
2022-11-03T21:34:43.362Z,12.70
2022-11-03T21:37:33.846Z,12.10
2022-11-03T21:40:24.205Z,12.10
2022-11-03T21:43:33.189Z,11.90
2022-11-03T21:46:24.115Z,11.70
2022-11-03T21:49:32.922Z,11.90
2022-11-03T21:52:31.378Z,11.50
2022-11-03T21:55:23.611Z,11.50
2022-11-03T21:58:14.033Z,11.90
2022-11-03T22:01:04.744Z,11.20
2022-11-03T22:03:56.526Z,11.40
2022-11-03T22:06:46.975Z,11.00
2022-11-03T22:09:37.314Z,10.60
2022-11-03T22:12:28.255Z,11.50
2022-11-03T22:15:37.302Z,11.30
2022-11-03T22:18:28.032Z,11.40
2022-11-03T22:21:37.244Z,11.30
2022-11-03T22:24:45.923Z,10.60
2022-11-03T22:27:36.436Z,10.50
2022-11-03T22:30:45.566Z,11.40
2022-11-03T22:33:55.973Z,10.80
2022-11-03T22:36:46.710Z,10.30
2022-11-03T22:39:56.002Z,10.00
2022-11-03T22:43:04.925Z,9.70
2022-11-03T22:45:56.936Z,10.20
2022-11-03T22:48:47.331Z,10.00
2022-11-03T22:51:37.740Z,11.10
2022-11-03T22:54:28.104Z,10.30
2022-11-03T22:57:18.427Z,10.10
2022-11-03T23:00:14.470Z,9.40
2022-11-03T23:03:05.126Z,9.50
2022-11-03T23:06:05.719Z,9.70
2022-11-03T23:08:56.926Z,9.10
2022-11-03T23:11:47.355Z,9.70
2022-11-03T23:14:56.142Z,9.80
2022-11-03T23:18:05.025Z,9.70
2022-11-03T23:21:08.882Z,9.60
2022-11-03T23:24:17.815Z,9.40
2022-11-03T23:27:08.112Z,8.90
2022-11-03T23:29:58.443Z,8.70
2022-11-03T23:32:51.020Z,9.00
2022-11-03T23:35:41.391Z,8.80
2022-11-03T23:38:38.060Z,8.90
2022-11-03T23:41:29.852Z,9.10
2022-11-03T23:44:21.587Z,8.90
2022-11-03T23:47:30.264Z,8.40
2022-11-03T23:50:20.602Z,8.90
2022-11-03T23:53:14.516Z,8.30
2022-11-03T23:56:24.265Z,8.40
2022-11-03T23:59:16.099Z,8.90
